createdAt,value
2018-10-21T00:01:59.018Z,102335.93
2018-10-21T00:04:26.411Z,102331.48
2018-10-21T00:06:53.673Z,102326.25
2018-10-21T00:09:21.742Z,102331.52
2018-10-21T00:11:49.234Z,102327.02
2018-10-21T00:14:16.514Z,102331.67
2018-10-21T00:16:43.766Z,102333.41
2018-10-21T00:19:11.067Z,102334.09
2018-10-21T00:21:38.368Z,102331.72
2018-10-21T00:24:05.919Z,102338.17
2018-10-21T00:26:33.453Z,102337.25
2018-10-21T00:29:00.914Z,102338.94
2018-10-21T00:31:28.304Z,102335.71
2018-10-21T00:33:55.741Z,102342.62
2018-10-21T00:36:23.071Z,102343.05
2018-10-21T00:38:50.379Z,102337.39
2018-10-21T00:41:21.200Z,102348.65
2018-10-21T00:43:48.320Z,102344.19
2018-10-21T00:46:15.439Z,102343.26
2018-10-21T00:48:42.613Z,102343.26
2018-10-21T00:51:09.743Z,102331.30
2018-10-21T00:53:36.892Z,102338.94
2018-10-21T00:56:04.093Z,102340.09
2018-10-21T00:58:31.257Z,102336.95
2018-10-21T01:00:58.373Z,102333.83
2018-10-21T01:03:25.556Z,102343.93
2018-10-21T01:05:52.729Z,102336.77
2018-10-21T01:08:19.929Z,102342.42
2018-10-21T01:10:47.105Z,102347.44
2018-10-21T01:13:14.229Z,102342.88
2018-10-21T01:15:41.370Z,102349.36
2018-10-21T01:18:08.574Z,102346.30
2018-10-21T01:20:35.723Z,102347.89
2018-10-21T01:23:02.883Z,102352.56
2018-10-21T01:25:30.112Z,102347.26
2018-10-21T01:27:57.268Z,102347.26
2018-10-21T01:30:24.388Z,102343.60
2018-10-21T01:32:51.567Z,102338.00
2018-10-21T01:35:18.693Z,102339.34
2018-10-21T01:37:45.860Z,102333.95
2018-10-21T01:40:46.799Z,102331.27
2018-10-21T01:43:15.219Z,102331.60
2018-10-21T01:45:42.336Z,102332.02
2018-10-21T01:48:11.546Z,102327.22
2018-10-21T01:50:38.699Z,102328.19
2018-10-21T01:53:07.008Z,102320.52
2018-10-21T01:55:34.181Z,102317.03
2018-10-21T01:58:01.596Z,102321.75
2018-10-21T02:00:29.560Z,102317.82
2018-10-21T02:02:57.175Z,102315.95
2018-10-21T02:05:24.577Z,102314.48
2018-10-21T02:07:51.944Z,102312.11
2018-10-21T02:10:19.109Z,102321.56
2018-10-21T02:12:46.308Z,102317.56
2018-10-21T02:15:13.882Z,102318.31
2018-10-21T02:17:41.306Z,102315.19
2018-10-21T02:20:09.621Z,102316.68
2018-10-21T02:22:36.836Z,102309.66
2018-10-21T02:25:04.352Z,102319.94
2018-10-21T02:27:31.529Z,102324.18
2018-10-21T02:29:58.649Z,102323.95
2018-10-21T02:32:25.825Z,102322.49
2018-10-21T02:34:52.957Z,102325.46
2018-10-21T02:37:20.073Z,102334.59
2018-10-21T02:39:47.262Z,102331.75
2018-10-21T02:42:14.413Z,102329.88
2018-10-21T02:44:41.552Z,102330.18
2018-10-21T02:47:08.734Z,102333.03
2018-10-21T02:49:35.863Z,102338.15
2018-10-21T02:52:09.093Z,102335.72
2018-10-21T02:54:36.512Z,102332.32
2018-10-21T02:57:05.421Z,102341.05
2018-10-21T02:59:32.584Z,102335.67
2018-10-21T03:01:59.725Z,102342.52
2018-10-21T03:04:26.847Z,102338.10
2018-10-21T03:06:54.028Z,102338.36
2018-10-21T03:09:21.249Z,102346.30
2018-10-21T03:11:48.295Z,102340.25
2018-10-21T03:14:15.539Z,102340.52
2018-10-21T03:16:42.671Z,102349.90
2018-10-21T03:19:09.813Z,102355.05
2018-10-21T03:21:37.060Z,102354.38
2018-10-21T03:24:04.433Z,102341.92
2018-10-21T03:26:31.550Z,102345.52
2018-10-21T03:28:58.724Z,102348.18
2018-10-21T03:31:25.842Z,102357.56
2018-10-21T03:33:53.048Z,102353.07
2018-10-21T03:36:20.185Z,102350.94
2018-10-21T03:38:47.304Z,102359.37
2018-10-21T03:41:14.420Z,102360.16
2018-10-21T03:43:41.600Z,102364.23
2018-10-21T03:46:10.237Z,102363.13
2018-10-21T03:48:37.349Z,102372.30
2018-10-21T03:51:04.540Z,102379.42
2018-10-21T03:53:31.645Z,102371.72
2018-10-21T03:55:58.765Z,102369.73
2018-10-21T03:58:25.949Z,102370.64
2018-10-21T04:00:53.078Z,102382.91
2018-10-21T04:03:20.187Z,102377.48
2018-10-21T04:05:47.344Z,102376.13
2018-10-21T04:08:14.483Z,102379.84
2018-10-21T04:10:41.600Z,102377.60
2018-10-21T04:13:08.777Z,102378.14
2018-10-21T04:15:35.994Z,102388.42
2018-10-21T04:18:03.229Z,102389.20
2018-10-21T04:20:30.425Z,102386.77
2018-10-21T04:22:58.594Z,102388.02
2018-10-21T04:25:26.728Z,102385.06
2018-10-21T04:27:54.970Z,102387.18
2018-10-21T04:30:23.159Z,102385.35
2018-10-21T04:33:08.622Z,102388.19
2018-10-21T04:35:35.775Z,102385.30
2018-10-21T04:38:39.645Z,102381.11
2018-10-21T04:41:06.763Z,102378.85
2018-10-21T04:43:33.877Z,102374.23
2018-10-21T04:46:01.169Z,102387.52
2018-10-21T04:48:28.270Z,102378.83
2018-10-21T04:50:55.399Z,102379.82
2018-10-21T04:53:22.582Z,102370.55
2018-10-21T04:55:49.716Z,102371.72
2018-10-21T04:58:16.958Z,102373.31
2018-10-21T05:00:44.136Z,102362.34
2018-10-21T05:03:11.177Z,102364.83
2018-10-21T05:05:38.289Z,102363.66
2018-10-21T05:08:05.485Z,102364.31
2018-10-21T05:10:33.636Z,102361.75
2018-10-21T05:13:00.876Z,102371.92
2018-10-21T05:15:29.342Z,102365.13
2018-10-21T05:17:56.564Z,102371.17
2018-10-21T05:20:23.685Z,102373.17
2018-10-21T05:22:50.867Z,102372.52
2018-10-21T05:25:18.026Z,102382.45
2018-10-21T05:27:45.183Z,102382.45
2018-10-21T05:30:12.977Z,102386.34
2018-10-21T05:32:40.501Z,102389.86
2018-10-21T05:35:08.792Z,102391.31
2018-10-21T05:37:36.385Z,102385.58
2018-10-21T05:40:03.640Z,102385.94
2018-10-21T05:42:30.773Z,102387.48
2018-10-21T05:44:58.140Z,102391.20
2018-10-21T05:47:25.261Z,102399.05
2018-10-21T05:49:52.380Z,102395.03
2018-10-21T05:52:19.560Z,102397.02
2018-10-21T05:54:46.686Z,102393.53
2018-10-21T05:57:13.788Z,102399.99
2018-10-21T05:59:40.969Z,102395.56
2018-10-21T06:02:08.088Z,102401.55
2018-10-21T06:04:35.209Z,102399.00
2018-10-21T06:07:02.385Z,102401.71
2018-10-21T06:09:29.505Z,102410.95
2018-10-21T06:11:56.632Z,102413.85
2018-10-21T06:14:23.787Z,102412.89
2018-10-21T06:16:54.434Z,102417.75
2018-10-21T06:20:01.851Z,102421.77
2018-10-21T06:22:33.565Z,102416.16
2018-10-21T06:25:00.663Z,102414.27
2018-10-21T06:27:27.895Z,102421.96
2018-10-21T06:29:55.015Z,102424.31
2018-10-21T06:32:22.196Z,102425.61
2018-10-21T06:34:49.351Z,102426.50
2018-10-21T06:37:16.460Z,102431.17
2018-10-21T06:39:43.569Z,102437.56
2018-10-21T06:42:10.883Z,102436.45
2018-10-21T06:44:38.202Z,102445.31
2018-10-21T06:47:05.550Z,102442.11
2018-10-21T06:49:32.918Z,102444.11
2018-10-21T06:52:00.193Z,102442.89
2018-10-21T06:54:27.590Z,102449.11
2018-10-21T06:56:55.032Z,102453.09
2018-10-21T06:59:22.318Z,102459.34
2018-10-21T07:01:49.935Z,102464.30
2018-10-21T07:04:17.503Z,102462.59
2018-10-21T07:06:44.946Z,102451.58
2018-10-21T07:09:12.351Z,102455.32
2018-10-21T07:11:39.853Z,102456.50
2018-10-21T07:14:07.319Z,102465.78
2018-10-21T07:16:34.805Z,102466.50
2018-10-21T07:19:02.102Z,102468.55
2018-10-21T07:21:29.414Z,102467.72
2018-10-21T07:23:56.756Z,102478.48
2018-10-21T07:26:24.136Z,102479.09
2018-10-21T07:28:51.746Z,102474.70
2018-10-21T07:31:19.451Z,102474.64
2018-10-21T07:33:47.138Z,102484.72
2018-10-21T07:36:14.945Z,102484.84
2018-10-21T07:38:42.921Z,102484.71
2018-10-21T07:41:10.859Z,102485.30
2018-10-21T07:43:38.416Z,102489.12
2018-10-21T07:46:05.993Z,102493.44
2018-10-21T07:48:33.561Z,102488.52
2018-10-21T07:51:01.799Z,102489.69
2018-10-21T07:53:29.373Z,102495.70
2018-10-21T07:55:56.993Z,102489.83
2018-10-21T07:58:24.568Z,102493.66
2018-10-21T08:00:52.124Z,102489.53
2018-10-21T08:03:19.658Z,102491.09
2018-10-21T08:05:58.726Z,102491.33
2018-10-21T08:08:27.239Z,102498.17
2018-10-21T08:10:54.732Z,102494.08
2018-10-21T08:13:23.712Z,102496.95
2018-10-21T08:15:51.290Z,102493.24
2018-10-21T08:18:18.626Z,102493.00
2018-10-21T08:20:47.154Z,102492.70
2018-10-21T08:23:15.565Z,102489.16
2018-10-21T08:25:44.298Z,102496.65
2018-10-21T08:28:11.672Z,102492.30
2018-10-21T08:30:39.215Z,102497.23
2018-10-21T08:33:06.988Z,102496.39
2018-10-21T08:35:34.618Z,102495.48
2018-10-21T08:38:02.621Z,102490.70
2018-10-21T08:40:30.018Z,102497.96
2018-10-21T08:42:57.262Z,102488.66
2018-10-21T08:45:25.004Z,102488.76
2018-10-21T08:47:52.693Z,102496.16
2018-10-21T08:50:20.124Z,102495.95
2018-10-21T08:52:47.543Z,102504.82
2018-10-21T08:55:15.316Z,102506.20
2018-10-21T08:57:43.060Z,102503.14
2018-10-21T09:00:13.090Z,102506.72
2018-10-21T09:02:40.951Z,102497.54
2018-10-21T09:05:09.982Z,102501.61
2018-10-21T09:07:37.486Z,102499.51
2018-10-21T09:10:05.815Z,102497.46
2018-10-21T09:12:33.364Z,102491.38
2018-10-21T09:15:00.715Z,102489.71
2018-10-21T09:17:28.114Z,102491.50
2018-10-21T09:19:55.463Z,102492.04
2018-10-21T09:22:23.010Z,102497.91
2018-10-21T09:24:50.784Z,102494.46
2018-10-21T09:27:18.374Z,102498.91
2018-10-21T09:29:45.906Z,102498.50
2018-10-21T09:32:13.260Z,102496.71
2018-10-21T09:34:40.725Z,102493.52
2018-10-21T09:37:08.260Z,102490.84
2018-10-21T09:39:35.987Z,102488.67
2018-10-21T09:42:03.464Z,102487.19
2018-10-21T09:44:31.126Z,102486.67
2018-10-21T09:46:58.623Z,102482.48
2018-10-21T09:49:25.886Z,102482.41
2018-10-21T09:51:53.280Z,102483.94
2018-10-21T09:54:20.876Z,102480.31
2018-10-21T09:56:48.419Z,102489.03
2018-10-21T09:59:15.882Z,102477.68
2018-10-21T10:01:48.834Z,102472.74
2018-10-21T10:04:16.683Z,102467.81
2018-10-21T10:06:44.036Z,102470.31
2018-10-21T10:09:12.527Z,102468.66
2018-10-21T10:11:40.139Z,102460.39
2018-10-21T10:14:07.546Z,102458.34
2018-10-21T10:16:35.243Z,102462.48
2018-10-21T10:19:03.535Z,102453.06
2018-10-21T10:21:31.368Z,102454.42
2018-10-21T10:23:59.051Z,102452.03
2018-10-21T10:26:26.876Z,102448.77
2018-10-21T10:28:54.687Z,102444.09
2018-10-21T10:31:22.647Z,102447.11
2018-10-21T10:33:50.542Z,102449.22
2018-10-21T10:36:18.245Z,102446.55
2018-10-21T10:38:45.812Z,102450.45
2018-10-21T10:41:13.696Z,102446.67
2018-10-21T10:43:41.660Z,102445.67
2018-10-21T10:46:09.651Z,102444.70
2018-10-21T10:48:37.299Z,102439.41
2018-10-21T10:51:05.947Z,102440.34
2018-10-21T10:53:34.075Z,102441.22
2018-10-21T10:56:01.655Z,102431.81
2018-10-21T10:58:29.499Z,102429.49
2018-10-21T11:00:57.451Z,102424.41
2018-10-21T11:03:25.164Z,102422.01
2018-10-21T11:05:53.151Z,102422.26
2018-10-21T11:08:20.962Z,102422.13
2018-10-21T11:10:48.568Z,102425.91
2018-10-21T11:13:16.905Z,102418.45
2018-10-21T11:15:44.871Z,102414.41
2018-10-21T11:18:12.499Z,102413.67
2018-10-21T11:20:39.861Z,102420.59
2018-10-21T11:23:07.514Z,102411.44
2018-10-21T11:25:35.065Z,102411.76
2018-10-21T11:28:02.431Z,102406.93
2018-10-21T11:30:30.373Z,102406.16
2018-10-21T11:32:58.000Z,102402.41
2018-10-21T11:35:26.076Z,102404.45
2018-10-21T11:37:53.848Z,102399.39
2018-10-21T11:40:21.555Z,102392.02
2018-10-21T11:42:49.207Z,102388.31
2018-10-21T11:45:16.433Z,102394.71
2018-10-21T11:47:43.942Z,102396.16
2018-10-21T11:50:11.267Z,102397.05
2018-10-21T11:52:39.004Z,102392.23
2018-10-21T11:55:07.489Z,102393.02
2018-10-21T11:57:34.738Z,102394.55
2018-10-21T12:00:02.528Z,102392.03
2018-10-21T12:02:29.903Z,102394.66
2018-10-21T12:04:57.915Z,102390.46
2018-10-21T12:07:25.604Z,102390.67
2018-10-21T12:09:53.243Z,102391.00
2018-10-21T12:12:20.772Z,102392.66
2018-10-21T12:14:48.545Z,102388.91
2018-10-21T12:17:16.329Z,102385.31
2018-10-21T12:19:44.648Z,102390.38
2018-10-21T12:22:12.143Z,102391.29
2018-10-21T12:24:39.489Z,102387.33
2018-10-21T12:27:06.790Z,102387.30
2018-10-21T12:29:34.445Z,102384.89
2018-10-21T12:32:01.759Z,102382.06
2018-10-21T12:34:29.133Z,102386.70
2018-10-21T12:36:56.398Z,102383.48
2018-10-21T12:39:23.797Z,102384.67
2018-10-21T12:41:51.379Z,102384.64
2018-10-21T12:44:24.549Z,102386.84
2018-10-21T12:46:51.776Z,102384.36
2018-10-21T12:49:19.034Z,102382.75
2018-10-21T12:51:46.238Z,102370.58
2018-10-21T12:54:13.538Z,102369.31
2018-10-21T12:56:40.669Z,102366.77
2018-10-21T12:59:07.934Z,102366.91
2018-10-21T13:01:35.161Z,102363.34
2018-10-21T13:04:02.449Z,102361.66
2018-10-21T13:06:29.708Z,102362.50
2018-10-21T13:08:56.881Z,102350.68
2018-10-21T13:11:24.096Z,102352.78
2018-10-21T13:13:51.337Z,102350.66
2018-10-21T13:16:18.598Z,102347.20
2018-10-21T13:18:45.757Z,102349.53
2018-10-21T13:21:13.026Z,102345.48
2018-10-21T13:23:40.217Z,102343.81
2018-10-21T13:26:07.404Z,102337.16
2018-10-21T13:28:34.689Z,102334.41
2018-10-21T13:31:01.990Z,102331.91
2018-10-21T13:33:29.141Z,102332.38
2018-10-21T13:35:57.270Z,102331.98
2018-10-21T13:38:24.440Z,102329.41
2018-10-21T13:40:51.649Z,102330.71
2018-10-21T13:43:19.008Z,102324.86
2018-10-21T13:45:46.233Z,102324.96
2018-10-21T13:48:13.411Z,102322.83
2018-10-21T13:50:40.669Z,102328.50
2018-10-21T13:53:07.969Z,102324.20
2018-10-21T13:55:35.065Z,102316.17
2018-10-21T13:58:02.354Z,102302.14
2018-10-21T14:00:29.527Z,102307.45
2018-10-21T14:02:56.744Z,102304.42
2018-10-21T14:05:23.964Z,102307.55
2018-10-21T14:07:51.218Z,102300.52
2018-10-21T14:10:18.516Z,102301.23
2018-10-21T14:12:45.701Z,102301.80
2018-10-21T14:15:12.937Z,102300.95
2018-10-21T14:17:40.115Z,102306.34
2018-10-21T14:20:08.653Z,102298.05
2018-10-21T14:22:35.878Z,102296.39
2018-10-21T14:25:03.120Z,102292.50
2018-10-21T14:27:30.389Z,102292.48
2018-10-21T14:29:57.630Z,102293.42
2018-10-21T14:32:24.836Z,102289.55
2018-10-21T14:34:52.058Z,102290.92
2018-10-21T14:37:19.262Z,102285.19
2018-10-21T14:39:46.449Z,102295.69
2018-10-21T14:42:13.757Z,102287.77
2018-10-21T14:44:40.911Z,102284.13
2018-10-21T14:47:08.193Z,102284.25
2018-10-21T14:49:35.442Z,102280.91
2018-10-21T14:52:02.874Z,102284.50
2018-10-21T14:54:30.074Z,102281.05
2018-10-21T14:56:57.314Z,102283.75
2018-10-21T14:59:24.549Z,102285.14
2018-10-21T15:01:51.788Z,102281.96
2018-10-21T15:04:19.029Z,102273.18
2018-10-21T15:06:46.278Z,102267.98
2018-10-21T15:09:14.195Z,102271.56
2018-10-21T15:11:41.868Z,102272.52
2018-10-21T15:14:10.205Z,102276.99
2018-10-21T15:16:37.384Z,102275.34
2018-10-21T15:19:04.807Z,102274.95
2018-10-21T15:21:32.002Z,102274.14
2018-10-21T15:23:59.200Z,102269.35
2018-10-21T15:26:26.438Z,102263.69
2018-10-21T15:28:53.636Z,102260.22
2018-10-21T15:31:20.849Z,102261.61
2018-10-21T15:33:48.082Z,102258.13
2018-10-21T15:36:15.278Z,102266.07
2018-10-21T15:38:42.440Z,102266.53
2018-10-21T15:41:09.699Z,102255.56
2018-10-21T15:43:36.934Z,102257.37
2018-10-21T15:46:04.212Z,102262.23
2018-10-21T15:48:31.523Z,102262.20
2018-10-21T15:50:58.660Z,102260.91
2018-10-21T15:53:25.849Z,102266.17
2018-10-21T15:55:53.109Z,102259.55
2018-10-21T15:58:20.296Z,102262.59
2018-10-21T16:00:47.487Z,102264.76
2018-10-21T16:03:14.705Z,102261.19
2018-10-21T16:05:41.898Z,102261.14
2018-10-21T16:08:09.143Z,102258.03
2018-10-21T16:10:36.570Z,102258.84
2018-10-21T16:13:04.984Z,102265.33
2018-10-21T16:15:32.223Z,102260.03
2018-10-21T16:17:59.495Z,102258.19
2018-10-21T16:20:26.666Z,102263.83
2018-10-21T16:22:53.864Z,102261.98
2018-10-21T16:25:21.209Z,102266.77
2018-10-21T16:27:48.380Z,102266.70
2018-10-21T16:30:16.229Z,102269.28
2018-10-21T16:32:44.303Z,102264.84
2018-10-21T16:35:11.966Z,102271.34
2018-10-21T16:37:39.711Z,102269.06
2018-10-21T16:40:08.773Z,102273.35
2018-10-21T16:42:36.074Z,102276.34
2018-10-21T16:45:03.420Z,102271.45
2018-10-21T16:47:30.664Z,102267.42
2018-10-21T16:49:57.870Z,102274.77
2018-10-21T16:52:25.064Z,102275.55
2018-10-21T16:54:52.319Z,102270.67
2018-10-21T16:57:19.547Z,102273.61
2018-10-21T16:59:46.791Z,102274.83
2018-10-21T17:02:14.013Z,102276.08
2018-10-21T17:04:41.188Z,102272.92
2018-10-21T17:07:08.463Z,102283.78
2018-10-21T17:09:35.860Z,102279.75
2018-10-21T17:12:02.994Z,102288.42
2018-10-21T17:14:30.241Z,102287.89
2018-10-21T17:16:57.530Z,102284.31
2018-10-21T17:19:24.722Z,102282.55
2018-10-21T17:21:51.906Z,102279.85
2018-10-21T17:24:19.244Z,102285.89
2018-10-21T17:26:46.385Z,102286.70
2018-10-21T17:29:13.598Z,102295.78
2018-10-21T17:31:40.859Z,102295.69
2018-10-21T17:34:08.105Z,102289.09
2018-10-21T17:36:35.250Z,102286.41
2018-10-21T17:39:02.820Z,102282.01
2018-10-21T17:41:30.013Z,102284.17
2018-10-21T17:43:57.216Z,102288.46
2018-10-21T17:46:24.496Z,102280.95
2018-10-21T17:48:51.673Z,102282.62
2018-10-21T17:51:18.846Z,102280.38
2018-10-21T17:53:46.139Z,102279.41
2018-10-21T17:56:13.319Z,102282.02
2018-10-21T17:58:40.541Z,102281.92
2018-10-21T18:01:07.854Z,102276.20
2018-10-21T18:03:35.052Z,102273.98
2018-10-21T18:06:02.318Z,102265.62
2018-10-21T18:08:29.566Z,102267.29
2018-10-21T18:10:56.758Z,102264.16
2018-10-21T18:13:24.036Z,102270.23
2018-10-21T18:15:51.290Z,102269.38
2018-10-21T18:18:18.586Z,102270.30
2018-10-21T18:20:45.783Z,102271.09
2018-10-21T18:23:13.012Z,102274.06
2018-10-21T18:25:40.193Z,102270.04
2018-10-21T18:28:07.425Z,102270.92
2018-10-21T18:30:34.673Z,102263.83
2018-10-21T18:33:01.942Z,102267.19
2018-10-21T18:35:29.146Z,102275.53
2018-10-21T18:37:56.399Z,102273.27
2018-10-21T18:40:23.749Z,102273.69
2018-10-21T18:42:50.897Z,102271.44
2018-10-21T18:45:18.153Z,102265.64
2018-10-21T18:47:45.478Z,102265.64
2018-10-21T18:50:13.578Z,102266.07
2018-10-21T18:52:40.906Z,102265.89
2018-10-21T18:55:08.683Z,102268.47
2018-10-21T18:57:35.885Z,102266.66
2018-10-21T19:00:03.237Z,102272.74
2018-10-21T19:02:30.420Z,102269.59
2018-10-21T19:04:57.601Z,102267.80
2018-10-21T19:07:24.910Z,102271.22
2018-10-21T19:09:52.200Z,102265.84
2018-10-21T19:12:19.556Z,102268.41
2018-10-21T19:14:46.809Z,102267.11
2018-10-21T19:17:14.002Z,102264.88
2018-10-21T19:19:41.247Z,102270.03
2018-10-21T19:22:08.512Z,102264.77
2018-10-21T19:24:35.657Z,102267.77
2018-10-21T19:27:02.860Z,102262.40
2018-10-21T19:29:30.113Z,102263.20
2018-10-21T19:31:57.313Z,102260.16
2018-10-21T19:34:24.687Z,102259.74
2018-10-21T19:36:51.930Z,102254.48
2018-10-21T19:39:19.143Z,102257.14
2018-10-21T19:41:46.421Z,102253.06
2018-10-21T19:44:13.657Z,102247.34
2018-10-21T19:46:40.845Z,102253.02
2018-10-21T19:49:08.661Z,102255.48
2018-10-21T19:51:35.958Z,102255.44
2018-10-21T19:54:03.177Z,102253.71
2018-10-21T19:56:31.326Z,102253.70
2018-10-21T19:58:58.665Z,102255.48
2018-10-21T20:01:25.860Z,102259.31
2018-10-21T20:03:53.097Z,102257.13
2018-10-21T20:06:20.450Z,102262.69
2018-10-21T20:08:47.649Z,102256.50
2018-10-21T20:11:14.853Z,102251.66
2018-10-21T20:13:42.088Z,102259.11
2018-10-21T20:16:09.323Z,102259.88
2018-10-21T20:18:36.658Z,102261.55
2018-10-21T20:21:04.542Z,102257.22
2018-10-21T20:23:31.739Z,102256.63
2018-10-21T20:25:58.929Z,102257.02
2018-10-21T20:28:26.157Z,102258.27
2018-10-21T20:30:53.471Z,102252.67
2018-10-21T20:33:20.699Z,102252.93
2018-10-21T20:35:47.918Z,102252.05
2018-10-21T20:38:15.117Z,102250.73
2018-10-21T20:40:42.323Z,102248.42
2018-10-21T20:43:09.635Z,102247.04
2018-10-21T20:45:36.836Z,102247.91
2018-10-21T20:48:04.082Z,102248.72
2018-10-21T20:50:31.314Z,102245.14
2018-10-21T20:52:58.609Z,102246.35
2018-10-21T20:55:25.802Z,102251.98
2018-10-21T20:57:53.092Z,102252.78
2018-10-21T21:00:20.247Z,102258.52
2018-10-21T21:02:47.429Z,102259.27
2018-10-21T21:05:14.672Z,102260.61
2018-10-21T21:07:41.877Z,102258.80
2018-10-21T21:10:09.538Z,102260.89
2018-10-21T21:12:36.734Z,102260.39
2018-10-21T21:15:04.294Z,102256.94
2018-10-21T21:17:31.492Z,102255.22
2018-10-21T21:19:58.833Z,102259.97
2018-10-21T21:22:26.014Z,102259.73
2018-10-21T21:24:53.229Z,102249.20
2018-10-21T21:27:20.513Z,102254.42
2018-10-21T21:29:47.705Z,102249.63
2018-10-21T21:32:14.885Z,102247.81
2018-10-21T21:34:42.100Z,102248.98
2018-10-21T21:37:09.301Z,102254.75
2018-10-21T21:39:36.486Z,102255.59
2018-10-21T21:42:04.137Z,102254.70
2018-10-21T21:44:31.378Z,102246.97
2018-10-21T21:46:58.574Z,102247.77
2018-10-21T21:49:25.802Z,102246.84
2018-10-21T21:51:53.001Z,102254.66
2018-10-21T21:54:20.181Z,102242.52
2018-10-21T21:56:47.421Z,102242.09
2018-10-21T21:59:14.636Z,102241.25
2018-10-21T22:01:41.850Z,102250.75
2018-10-21T22:04:09.168Z,102246.00
2018-10-21T22:06:36.675Z,102239.86
2018-10-21T22:09:09.022Z,102235.02
2018-10-21T22:11:36.374Z,102237.16
2018-10-21T22:14:03.765Z,102239.68
2018-10-21T22:16:31.046Z,102241.11
2018-10-21T22:18:58.236Z,102236.23
2018-10-21T22:21:25.423Z,102234.05
2018-10-21T22:23:52.701Z,102231.44
2018-10-21T22:26:19.948Z,102224.92
2018-10-21T22:28:47.134Z,102230.14
2018-10-21T22:31:14.370Z,102228.36
2018-10-21T22:33:41.559Z,102224.36
2018-10-21T22:36:08.794Z,102227.44
2018-10-21T22:38:36.080Z,102223.44
2018-10-21T22:41:04.201Z,102223.52
2018-10-21T22:43:31.389Z,102219.53
2018-10-21T22:45:58.751Z,102220.79
2018-10-21T22:48:25.955Z,102216.83
2018-10-21T22:50:53.143Z,102216.84
2018-10-21T22:53:20.380Z,102218.23
2018-10-21T22:55:47.559Z,102218.27
2018-10-21T22:58:14.817Z,102217.29
2018-10-21T23:00:42.004Z,102208.12
2018-10-21T23:03:09.205Z,102212.08
2018-10-21T23:05:36.393Z,102212.50
2018-10-21T23:08:03.667Z,102206.31
2018-10-21T23:10:30.859Z,102201.94
2018-10-21T23:12:58.256Z,102201.02
2018-10-21T23:15:25.509Z,102197.05
2018-10-21T23:17:52.722Z,102197.05
2018-10-21T23:20:19.978Z,102197.05
2018-10-21T23:22:47.242Z,102200.95
2018-10-21T23:25:14.458Z,102194.02
2018-10-21T23:27:41.645Z,102193.15
2018-10-21T23:30:08.932Z,102191.01
2018-10-21T23:32:36.111Z,102195.47
2018-10-21T23:35:03.407Z,102193.13
2018-10-21T23:37:30.657Z,102196.16
2018-10-21T23:39:57.872Z,102199.22
2018-10-21T23:42:25.095Z,102194.90
2018-10-21T23:44:52.343Z,102190.78
2018-10-21T23:47:19.615Z,102187.80
2018-10-21T23:49:46.813Z,102184.02
2018-10-21T23:52:14.137Z,102182.37
2018-10-21T23:54:41.350Z,102178.09
2018-10-21T23:57:08.537Z,102173.75
2018-10-21T23:59:36.446Z,102176.82
